sensor_id;sensor_type;location;lat;lon;timestamp;pressure;altitude;pressure_sealevel;temperature
34023;BMP280;20673;48.980;8.138;2022-08-01T00:01:14;100068.97;;;21.23
34023;BMP280;20673;48.980;8.138;2022-08-01T00:03:40;100072.56;;;21.16
34023;BMP280;20673;48.980;8.138;2022-08-01T00:06:07;100073.72;;;21.12
34023;BMP280;20673;48.980;8.138;2022-08-01T00:08:33;100073.21;;;21.07
34023;BMP280;20673;48.980;8.138;2022-08-01T00:10:59;100073.97;;;21.01
34023;BMP280;20673;48.980;8.138;2022-08-01T00:13:25;100077.71;;;20.94
34023;BMP280;20673;48.980;8.138;2022-08-01T00:15:52;100079.17;;;20.93
34023;BMP280;20673;48.980;8.138;2022-08-01T00:18:18;100083.42;;;20.82
34023;BMP280;20673;48.980;8.138;2022-08-01T00:20:44;100083.36;;;20.76
34023;BMP280;20673;48.980;8.138;2022-08-01T00:23:10;100088.79;;;20.63
34023;BMP280;20673;48.980;8.138;2022-08-01T00:25:36;100088.23;;;20.60
34023;BMP280;20673;48.980;8.138;2022-08-01T00:28:02;100086.42;;;20.56
34023;BMP280;20673;48.980;8.138;2022-08-01T00:30:29;100087.40;;;20.50
34023;BMP280;20673;48.980;8.138;2022-08-01T00:32:55;100084.89;;;20.43
34023;BMP280;20673;48.980;8.138;2022-08-01T00:35:21;100087.07;;;20.35
34023;BMP280;20673;48.980;8.138;2022-08-01T00:37:47;100095.98;;;20.32
34023;BMP280;20673;48.980;8.138;2022-08-01T00:40:13;100091.00;;;20.24
34023;BMP280;20673;48.980;8.138;2022-08-01T00:42:40;100087.65;;;20.20
34023;BMP280;20673;48.980;8.138;2022-08-01T00:45:08;100085.71;;;20.17
34023;BMP280;20673;48.980;8.138;2022-08-01T00:47:34;100086.72;;;20.15
34023;BMP280;20673;48.980;8.138;2022-08-01T00:50:05;100087.85;;;20.11
34023;BMP280;20673;48.980;8.138;2022-08-01T00:52:33;100084.29;;;20.07
34023;BMP280;20673;48.980;8.138;2022-08-01T00:55:00;100087.04;;;19.92
34023;BMP280;20673;48.980;8.138;2022-08-01T00:57:27;100089.38;;;19.76
34023;BMP280;20673;48.980;8.138;2022-08-01T00:59:54;100093.00;;;19.72
34023;BMP280;20673;48.980;8.138;2022-08-01T01:02:20;100089.70;;;19.66
34023;BMP280;20673;48.980;8.138;2022-08-01T01:04:47;100093.35;;;19.74
34023;BMP280;20673;48.980;8.138;2022-08-01T01:07:25;100092.76;;;19.82
34023;BMP280;20673;48.980;8.138;2022-08-01T01:12:47;100091.03;;;19.75
34023;BMP280;20673;48.980;8.138;2022-08-01T01:18:22;100101.06;;;19.74
34023;BMP280;20673;48.980;8.138;2022-08-01T01:21:13;100097.73;;;19.74
34023;BMP280;20673;48.980;8.138;2022-08-01T01:27:10;100094.15;;;19.66
34023;BMP280;20673;48.980;8.138;2022-08-01T01:29:42;100092.12;;;19.59
34023;BMP280;20673;48.980;8.138;2022-08-01T01:32:22;100092.03;;;19.59
34023;BMP280;20673;48.980;8.138;2022-08-01T01:34:49;100095.22;;;19.40
34023;BMP280;20673;48.980;8.138;2022-08-01T01:37:19;100104.14;;;19.33
34023;BMP280;20673;48.980;8.138;2022-08-01T01:39:49;100097.04;;;19.28
34023;BMP280;20673;48.980;8.138;2022-08-01T01:42:18;100105.08;;;19.29
34023;BMP280;20673;48.980;8.138;2022-08-01T01:44:49;100100.12;;;19.30
34023;BMP280;20673;48.980;8.138;2022-08-01T01:47:18;100108.83;;;19.31
34023;BMP280;20673;48.980;8.138;2022-08-01T01:49:47;100112.47;;;19.20
34023;BMP280;20673;48.980;8.138;2022-08-01T01:52:16;100113.97;;;19.21
34023;BMP280;20673;48.980;8.138;2022-08-01T01:54:47;100109.18;;;19.20
34023;BMP280;20673;48.980;8.138;2022-08-01T01:57:15;100115.64;;;19.18
34023;BMP280;20673;48.980;8.138;2022-08-01T01:59:44;100114.35;;;19.15
34023;BMP280;20673;48.980;8.138;2022-08-01T02:02:13;100115.75;;;19.03
34023;BMP280;20673;48.980;8.138;2022-08-01T02:04:43;100112.93;;;18.90
34023;BMP280;20673;48.980;8.138;2022-08-01T02:07:16;100113.20;;;18.82
34023;BMP280;20673;48.980;8.138;2022-08-01T02:09:43;100118.26;;;18.72
34023;BMP280;20673;48.980;8.138;2022-08-01T02:12:14;100115.29;;;18.70
34023;BMP280;20673;48.980;8.138;2022-08-01T02:14:44;100114.62;;;18.68
34023;BMP280;20673;48.980;8.138;2022-08-01T02:17:15;100117.53;;;18.66
34023;BMP280;20673;48.980;8.138;2022-08-01T02:19:42;100122.17;;;18.61
34023;BMP280;20673;48.980;8.138;2022-08-01T02:22:16;100121.31;;;18.60
34023;BMP280;20673;48.980;8.138;2022-08-01T02:28:45;100125.43;;;18.46
34023;BMP280;20673;48.980;8.138;2022-08-01T02:30:24;100127.89;;;18.52
34023;BMP280;20673;48.980;8.138;2022-08-01T02:33:10;100123.51;;;18.56
34023;BMP280;20673;48.980;8.138;2022-08-01T02:35:37;100130.08;;;18.56
34023;BMP280;20673;48.980;8.138;2022-08-01T02:38:09;100130.84;;;18.54
34023;BMP280;20673;48.980;8.138;2022-08-01T02:40:40;100128.79;;;18.60
34023;BMP280;20673;48.980;8.138;2022-08-01T02:43:09;100135.64;;;18.59
34023;BMP280;20673;48.980;8.138;2022-08-01T02:45:41;100129.61;;;18.59
34023;BMP280;20673;48.980;8.138;2022-08-01T02:48:14;100131.15;;;18.57
34023;BMP280;20673;48.980;8.138;2022-08-01T02:50:45;100128.93;;;18.54
34023;BMP280;20673;48.980;8.138;2022-08-01T02:53:14;100130.64;;;18.56
34023;BMP280;20673;48.980;8.138;2022-08-01T02:55:43;100129.85;;;18.53
34023;BMP280;20673;48.980;8.138;2022-08-01T02:58:14;100131.91;;;18.49
34023;BMP280;20673;48.980;8.138;2022-08-01T03:00:43;100126.72;;;18.40
34023;BMP280;20673;48.980;8.138;2022-08-01T03:03:11;100132.93;;;18.40
34023;BMP280;20673;48.980;8.138;2022-08-01T03:05:39;100126.83;;;18.38
34023;BMP280;20673;48.980;8.138;2022-08-01T03:08:07;100121.03;;;18.32
34023;BMP280;20673;48.980;8.138;2022-08-01T03:10:38;100125.17;;;18.29
34023;BMP280;20673;48.980;8.138;2022-08-01T03:13:08;100124.33;;;18.31
34023;BMP280;20673;48.980;8.138;2022-08-01T03:15:39;100126.79;;;18.34
34023;BMP280;20673;48.980;8.138;2022-08-01T03:18:09;100127.83;;;18.35
34023;BMP280;20673;48.980;8.138;2022-08-01T03:20:37;100125.52;;;18.32
34023;BMP280;20673;48.980;8.138;2022-08-01T03:23:07;100126.22;;;18.34
34023;BMP280;20673;48.980;8.138;2022-08-01T03:25:38;100130.83;;;18.34
34023;BMP280;20673;48.980;8.138;2022-08-01T03:28:07;100130.17;;;18.35
34023;BMP280;20673;48.980;8.138;2022-08-01T03:30:36;100132.18;;;18.34
34023;BMP280;20673;48.980;8.138;2022-08-01T03:33:04;100127.15;;;18.33
34023;BMP280;20673;48.980;8.138;2022-08-01T03:35:37;100132.70;;;18.35
34023;BMP280;20673;48.980;8.138;2022-08-01T03:38:08;100135.33;;;18.32
34023;BMP280;20673;48.980;8.138;2022-08-01T03:40:48;100132.09;;;18.29
34023;BMP280;20673;48.980;8.138;2022-08-01T03:43:31;100137.20;;;18.26
34023;BMP280;20673;48.980;8.138;2022-08-01T03:46:03;100137.43;;;18.25
34023;BMP280;20673;48.980;8.138;2022-08-01T03:48:32;100137.93;;;18.25
34023;BMP280;20673;48.980;8.138;2022-08-01T03:51:03;100133.75;;;18.27
34023;BMP280;20673;48.980;8.138;2022-08-01T03:53:33;100130.54;;;18.27
34023;BMP280;20673;48.980;8.138;2022-08-01T03:56:02;100126.92;;;18.32
34023;BMP280;20673;48.980;8.138;2022-08-01T03:58:31;100127.23;;;18.31
34023;BMP280;20673;48.980;8.138;2022-08-01T04:00:58;100125.18;;;18.32
34023;BMP280;20673;48.980;8.138;2022-08-01T04:03:25;100125.56;;;18.35
34023;BMP280;20673;48.980;8.138;2022-08-01T04:05:52;100123.18;;;18.34
34023;BMP280;20673;48.980;8.138;2022-08-01T04:08:18;100123.90;;;18.41
34023;BMP280;20673;48.980;8.138;2022-08-01T04:10:45;100124.07;;;18.41
34023;BMP280;20673;48.980;8.138;2022-08-01T04:13:11;100129.46;;;18.45
34023;BMP280;20673;48.980;8.138;2022-08-01T04:15:37;100131.45;;;18.46
34023;BMP280;20673;48.980;8.138;2022-08-01T04:18:03;100133.03;;;18.48
34023;BMP280;20673;48.980;8.138;2022-08-01T04:20:29;100131.06;;;18.42
34023;BMP280;20673;48.980;8.138;2022-08-01T04:22:55;100129.26;;;18.46
34023;BMP280;20673;48.980;8.138;2022-08-01T04:25:29;100131.79;;;18.46
34023;BMP280;20673;48.980;8.138;2022-08-01T04:27:58;100128.95;;;18.52
34023;BMP280;20673;48.980;8.138;2022-08-01T04:30:31;100129.20;;;18.54
34023;BMP280;20673;48.980;8.138;2022-08-01T04:33:00;100132.03;;;18.60
34023;BMP280;20673;48.980;8.138;2022-08-01T04:35:28;100135.01;;;18.69
34023;BMP280;20673;48.980;8.138;2022-08-01T04:37:57;100134.33;;;18.76
34023;BMP280;20673;48.980;8.138;2022-08-01T04:40:25;100139.09;;;18.84
34023;BMP280;20673;48.980;8.138;2022-08-01T04:42:52;100134.28;;;18.92
34023;BMP280;20673;48.980;8.138;2022-08-01T04:45:18;100134.22;;;19.00
34023;BMP280;20673;48.980;8.138;2022-08-01T04:47:45;100137.43;;;19.07
34023;BMP280;20673;48.980;8.138;2022-08-01T04:50:13;100137.14;;;19.15
34023;BMP280;20673;48.980;8.138;2022-08-01T04:52:40;100141.77;;;19.23
34023;BMP280;20673;48.980;8.138;2022-08-01T04:55:08;100142.42;;;19.30
34023;BMP280;20673;48.980;8.138;2022-08-01T04:57:39;100140.79;;;19.41
34023;BMP280;20673;48.980;8.138;2022-08-01T05:00:07;100140.33;;;19.50
34023;BMP280;20673;48.980;8.138;2022-08-01T05:02:34;100142.26;;;19.59
34023;BMP280;20673;48.980;8.138;2022-08-01T05:05:00;100138.22;;;19.68
34023;BMP280;20673;48.980;8.138;2022-08-01T05:07:26;100142.58;;;19.78
34023;BMP280;20673;48.980;8.138;2022-08-01T05:09:52;100138.29;;;19.84
34023;BMP280;20673;48.980;8.138;2022-08-01T05:12:18;100139.47;;;19.88
34023;BMP280;20673;48.980;8.138;2022-08-01T05:14:44;100138.01;;;19.94
34023;BMP280;20673;48.980;8.138;2022-08-01T05:17:11;100148.01;;;20.02
34023;BMP280;20673;48.980;8.138;2022-08-01T05:19:39;100147.62;;;20.15
34023;BMP280;20673;48.980;8.138;2022-08-01T05:22:08;100141.86;;;20.25
34023;BMP280;20673;48.980;8.138;2022-08-01T05:24:36;100141.54;;;20.36
34023;BMP280;20673;48.980;8.138;2022-08-01T05:27:04;100148.26;;;20.44
34023;BMP280;20673;48.980;8.138;2022-08-01T05:29:31;100145.68;;;20.58
34023;BMP280;20673;48.980;8.138;2022-08-01T05:31:57;100145.83;;;20.70
34023;BMP280;20673;48.980;8.138;2022-08-01T05:34:25;100144.58;;;20.82
34023;BMP280;20673;48.980;8.138;2022-08-01T05:36:52;100149.35;;;20.93
34023;BMP280;20673;48.980;8.138;2022-08-01T05:39:18;100153.80;;;21.04
34023;BMP280;20673;48.980;8.138;2022-08-01T05:41:45;100149.95;;;21.15
34023;BMP280;20673;48.980;8.138;2022-08-01T05:44:11;100150.00;;;21.24
34023;BMP280;20673;48.980;8.138;2022-08-01T05:46:38;100146.54;;;21.36
34023;BMP280;20673;48.980;8.138;2022-08-01T05:49:04;100146.47;;;21.45
34023;BMP280;20673;48.980;8.138;2022-08-01T05:51:31;100142.78;;;21.55
34023;BMP280;20673;48.980;8.138;2022-08-01T05:53:58;100148.79;;;21.64
34023;BMP280;20673;48.980;8.138;2022-08-01T05:56:25;100148.43;;;21.78
34023;BMP280;20673;48.980;8.138;2022-08-01T05:58:51;100148.61;;;21.88
34023;BMP280;20673;48.980;8.138;2022-08-01T06:01:18;100152.64;;;22.02
34023;BMP280;20673;48.980;8.138;2022-08-01T06:03:45;100154.39;;;22.18
34023;BMP280;20673;48.980;8.138;2022-08-01T06:06:12;100153.79;;;22.34
34023;BMP280;20673;48.980;8.138;2022-08-01T06:08:40;100159.17;;;22.46
34023;BMP280;20673;48.980;8.138;2022-08-01T06:11:06;100157.31;;;22.58
34023;BMP280;20673;48.980;8.138;2022-08-01T06:13:33;100161.61;;;22.66
34023;BMP280;20673;48.980;8.138;2022-08-01T06:15:59;100156.58;;;22.79
34023;BMP280;20673;48.980;8.138;2022-08-01T06:18:25;100155.61;;;22.80
34023;BMP280;20673;48.980;8.138;2022-08-01T06:20:51;100154.60;;;22.89
34023;BMP280;20673;48.980;8.138;2022-08-01T06:23:17;100156.67;;;23.15
34023;BMP280;20673;48.980;8.138;2022-08-01T06:25:44;100152.50;;;23.22
34023;BMP280;20673;48.980;8.138;2022-08-01T06:28:10;100151.01;;;23.34
34023;BMP280;20673;48.980;8.138;2022-08-01T06:30:36;100148.62;;;23.30
34023;BMP280;20673;48.980;8.138;2022-08-01T06:33:02;100145.51;;;23.36
34023;BMP280;20673;48.980;8.138;2022-08-01T06:35:29;100147.12;;;23.30
34023;BMP280;20673;48.980;8.138;2022-08-01T06:37:58;100152.07;;;23.25
34023;BMP280;20673;48.980;8.138;2022-08-01T06:40:24;100152.04;;;23.40
34023;BMP280;20673;48.980;8.138;2022-08-01T06:42:51;100154.90;;;23.53
34023;BMP280;20673;48.980;8.138;2022-08-01T06:45:17;100158.61;;;23.63
34023;BMP280;20673;48.980;8.138;2022-08-01T06:47:45;100159.50;;;23.81
34023;BMP280;20673;48.980;8.138;2022-08-01T06:50:11;100167.48;;;23.81
34023;BMP280;20673;48.980;8.138;2022-08-01T06:52:41;100171.63;;;23.87
34023;BMP280;20673;48.980;8.138;2022-08-01T06:55:08;100177.39;;;23.88
34023;BMP280;20673;48.980;8.138;2022-08-01T06:57:34;100171.58;;;24.02
34023;BMP280;20673;48.980;8.138;2022-08-01T07:00:04;100165.51;;;24.37
34023;BMP280;20673;48.980;8.138;2022-08-01T07:02:32;100169.40;;;24.72
34023;BMP280;20673;48.980;8.138;2022-08-01T07:04:58;100169.05;;;24.87
34023;BMP280;20673;48.980;8.138;2022-08-01T07:07:26;100168.94;;;24.99
34023;BMP280;20673;48.980;8.138;2022-08-01T07:09:53;100165.68;;;24.92
34023;BMP280;20673;48.980;8.138;2022-08-01T07:12:19;100168.83;;;24.85
34023;BMP280;20673;48.980;8.138;2022-08-01T07:14:45;100166.75;;;24.80
34023;BMP280;20673;48.980;8.138;2022-08-01T07:17:11;100165.11;;;24.67
34023;BMP280;20673;48.980;8.138;2022-08-01T07:19:37;100162.45;;;24.59
34023;BMP280;20673;48.980;8.138;2022-08-01T07:22:03;100159.64;;;24.63
34023;BMP280;20673;48.980;8.138;2022-08-01T07:24:29;100158.12;;;24.62
34023;BMP280;20673;48.980;8.138;2022-08-01T07:26:56;100162.23;;;24.64
34023;BMP280;20673;48.980;8.138;2022-08-01T07:29:24;100161.11;;;24.58
34023;BMP280;20673;48.980;8.138;2022-08-01T07:31:56;100156.75;;;24.64
34023;BMP280;20673;48.980;8.138;2022-08-01T07:34:24;100155.98;;;24.73
34023;BMP280;20673;48.980;8.138;2022-08-01T07:36:52;100150.86;;;24.91
34023;BMP280;20673;48.980;8.138;2022-08-01T07:39:18;100148.82;;;24.96
34023;BMP280;20673;48.980;8.138;2022-08-01T07:41:44;100144.81;;;25.12
34023;BMP280;20673;48.980;8.138;2022-08-01T07:44:11;100149.95;;;25.13
34023;BMP280;20673;48.980;8.138;2022-08-01T07:46:37;100151.00;;;25.32
34023;BMP280;20673;48.980;8.138;2022-08-01T07:49:03;100155.91;;;25.46
34023;BMP280;20673;48.980;8.138;2022-08-01T07:51:29;100147.06;;;25.46
34023;BMP280;20673;48.980;8.138;2022-08-01T07:53:55;100145.72;;;25.48
34023;BMP280;20673;48.980;8.138;2022-08-01T07:56:21;100150.18;;;25.74
34023;BMP280;20673;48.980;8.138;2022-08-01T07:58:50;100150.06;;;25.83
34023;BMP280;20673;48.980;8.138;2022-08-01T08:01:16;100155.79;;;25.99
34023;BMP280;20673;48.980;8.138;2022-08-01T08:03:43;100151.47;;;25.97
34023;BMP280;20673;48.980;8.138;2022-08-01T08:06:09;100148.98;;;25.97
34023;BMP280;20673;48.980;8.138;2022-08-01T08:08:35;100147.72;;;25.94
34023;BMP280;20673;48.980;8.138;2022-08-01T08:11:02;100149.43;;;25.99
34023;BMP280;20673;48.980;8.138;2022-08-01T08:13:28;100153.68;;;26.09
34023;BMP280;20673;48.980;8.138;2022-08-01T08:15:54;100146.36;;;26.26
34023;BMP280;20673;48.980;8.138;2022-08-01T08:18:21;100144.98;;;26.32
34023;BMP280;20673;48.980;8.138;2022-08-01T08:20:47;100149.34;;;26.60
34023;BMP280;20673;48.980;8.138;2022-08-01T08:23:13;100146.78;;;26.78
34023;BMP280;20673;48.980;8.138;2022-08-01T08:25:58;100146.00;;;26.71
34023;BMP280;20673;48.980;8.138;2022-08-01T08:28:24;100138.99;;;27.02
34023;BMP280;20673;48.980;8.138;2022-08-01T08:30:50;100140.21;;;27.26
34023;BMP280;20673;48.980;8.138;2022-08-01T08:33:16;100138.48;;;27.35
34023;BMP280;20673;48.980;8.138;2022-08-01T08:35:43;100141.08;;;27.21
34023;BMP280;20673;48.980;8.138;2022-08-01T08:38:09;100139.32;;;27.11
34023;BMP280;20673;48.980;8.138;2022-08-01T08:40:36;100139.19;;;27.37
34023;BMP280;20673;48.980;8.138;2022-08-01T08:43:05;100135.53;;;27.29
34023;BMP280;20673;48.980;8.138;2022-08-01T08:45:33;100133.75;;;27.18
34023;BMP280;20673;48.980;8.138;2022-08-01T08:48:00;100137.70;;;27.31
34023;BMP280;20673;48.980;8.138;2022-08-01T08:50:27;100130.11;;;27.12
34023;BMP280;20673;48.980;8.138;2022-08-01T08:52:55;100136.75;;;26.99
34023;BMP280;20673;48.980;8.138;2022-08-01T08:55:23;100135.31;;;27.34
34023;BMP280;20673;48.980;8.138;2022-08-01T08:57:50;100134.00;;;27.40
34023;BMP280;20673;48.980;8.138;2022-08-01T09:00:18;100137.15;;;27.56
34023;BMP280;20673;48.980;8.138;2022-08-01T09:02:47;100132.03;;;27.65
34023;BMP280;20673;48.980;8.138;2022-08-01T09:05:15;100136.12;;;27.21
34023;BMP280;20673;48.980;8.138;2022-08-01T09:07:42;100143.37;;;27.55
34023;BMP280;20673;48.980;8.138;2022-08-01T09:10:09;100142.28;;;27.80
34023;BMP280;20673;48.980;8.138;2022-08-01T09:12:37;100140.83;;;28.04
34023;BMP280;20673;48.980;8.138;2022-08-01T09:15:04;100137.64;;;28.18
34023;BMP280;20673;48.980;8.138;2022-08-01T09:17:41;100143.61;;;28.03
34023;BMP280;20673;48.980;8.138;2022-08-01T09:20:21;100140.82;;;27.62
34023;BMP280;20673;48.980;8.138;2022-08-01T09:22:38;100142.08;;;27.45
34023;BMP280;20673;48.980;8.138;2022-08-01T09:25:09;100150.33;;;27.91
34023;BMP280;20673;48.980;8.138;2022-08-01T09:27:38;100141.86;;;27.90
34023;BMP280;20673;48.980;8.138;2022-08-01T09:30:09;100135.09;;;28.35
34023;BMP280;20673;48.980;8.138;2022-08-01T09:32:52;100140.56;;;28.50
34023;BMP280;20673;48.980;8.138;2022-08-01T09:35:28;100141.43;;;28.77
34023;BMP280;20673;48.980;8.138;2022-08-01T09:38:19;100141.47;;;28.93
34023;BMP280;20673;48.980;8.138;2022-08-01T09:40:58;100145.43;;;29.31
34023;BMP280;20673;48.980;8.138;2022-08-01T09:43:28;100141.62;;;29.09
34023;BMP280;20673;48.980;8.138;2022-08-01T09:45:55;100136.10;;;28.61
34023;BMP280;20673;48.980;8.138;2022-08-01T09:48:22;100140.02;;;28.66
34023;BMP280;20673;48.980;8.138;2022-08-01T09:50:53;100139.29;;;28.41
34023;BMP280;20673;48.980;8.138;2022-08-01T09:53:20;100141.11;;;28.13
34023;BMP280;20673;48.980;8.138;2022-08-01T09:55:46;100146.00;;;28.08
34023;BMP280;20673;48.980;8.138;2022-08-01T09:58:12;100144.34;;;28.05
34023;BMP280;20673;48.980;8.138;2022-08-01T10:00:39;100140.53;;;28.01
34023;BMP280;20673;48.980;8.138;2022-08-01T10:03:21;100141.47;;;27.93
34023;BMP280;20673;48.980;8.138;2022-08-01T10:05:48;100146.21;;;27.95
34023;BMP280;20673;48.980;8.138;2022-08-01T10:08:14;100139.62;;;27.98
34023;BMP280;20673;48.980;8.138;2022-08-01T10:10:42;100140.72;;;28.00
34023;BMP280;20673;48.980;8.138;2022-08-01T10:13:10;100153.14;;;28.08
34023;BMP280;20673;48.980;8.138;2022-08-01T10:15:38;100139.54;;;29.11
34023;BMP280;20673;48.980;8.138;2022-08-01T10:18:07;100138.70;;;28.77
34023;BMP280;20673;48.980;8.138;2022-08-01T10:20:34;100134.90;;;29.41
34023;BMP280;20673;48.980;8.138;2022-08-01T10:23:03;100135.83;;;29.23
34023;BMP280;20673;48.980;8.138;2022-08-01T10:25:37;100131.89;;;29.30
34023;BMP280;20673;48.980;8.138;2022-08-01T10:28:16;100125.77;;;29.28
34023;BMP280;20673;48.980;8.138;2022-08-01T10:30:42;100125.54;;;29.08
34023;BMP280;20673;48.980;8.138;2022-08-01T10:33:10;100129.96;;;28.79
34023;BMP280;20673;48.980;8.138;2022-08-01T10:35:39;100121.65;;;28.66
34023;BMP280;20673;48.980;8.138;2022-08-01T10:38:07;100123.18;;;28.45
34023;BMP280;20673;48.980;8.138;2022-08-01T10:40:34;100137.66;;;29.08
34023;BMP280;20673;48.980;8.138;2022-08-01T10:43:02;100124.00;;;29.70
34023;BMP280;20673;48.980;8.138;2022-08-01T10:45:29;100121.78;;;29.73
34023;BMP280;20673;48.980;8.138;2022-08-01T10:50:49;100130.16;;;30.68
34023;BMP280;20673;48.980;8.138;2022-08-01T10:53:19;100108.08;;;30.68
34023;BMP280;20673;48.980;8.138;2022-08-01T10:55:52;100114.12;;;29.82
34023;BMP280;20673;48.980;8.138;2022-08-01T11:01:17;100110.97;;;29.11
34023;BMP280;20673;48.980;8.138;2022-08-01T11:04:10;100120.34;;;29.21
34023;BMP280;20673;48.980;8.138;2022-08-01T11:09:21;100109.58;;;29.34
34023;BMP280;20673;48.980;8.138;2022-08-01T11:12:12;100111.03;;;29.24
34023;BMP280;20673;48.980;8.138;2022-08-01T11:17:39;100121.80;;;29.09
34023;BMP280;20673;48.980;8.138;2022-08-01T11:20:12;100116.30;;;29.72
34023;BMP280;20673;48.980;8.138;2022-08-01T11:28:19;100110.06;;;31.37
34023;BMP280;20673;48.980;8.138;2022-08-01T11:30:53;100110.95;;;31.53
34023;BMP280;20673;48.980;8.138;2022-08-01T11:33:19;100107.58;;;31.68
34023;BMP280;20673;48.980;8.138;2022-08-01T11:38:49;100097.30;;;31.27
34023;BMP280;20673;48.980;8.138;2022-08-01T11:41:30;100085.08;;;31.50
34023;BMP280;20673;48.980;8.138;2022-08-01T11:44:00;100092.13;;;31.33
34023;BMP280;20673;48.980;8.138;2022-08-01T11:47:06;100083.73;;;31.09
34023;BMP280;20673;48.980;8.138;2022-08-01T11:49:46;100082.33;;;30.54
34023;BMP280;20673;48.980;8.138;2022-08-01T11:52:29;100089.01;;;30.48
34023;BMP280;20673;48.980;8.138;2022-08-01T11:55:06;100093.97;;;31.29
34023;BMP280;20673;48.980;8.138;2022-08-01T11:57:33;100088.17;;;31.64
34023;BMP280;20673;48.980;8.138;2022-08-01T12:00:16;100082.03;;;32.27
34023;BMP280;20673;48.980;8.138;2022-08-01T12:02:56;100075.86;;;32.20
34023;BMP280;20673;48.980;8.138;2022-08-01T12:05:17;100078.29;;;32.74
34023;BMP280;20673;48.980;8.138;2022-08-01T12:07:52;100068.29;;;31.95
34023;BMP280;20673;48.980;8.138;2022-08-01T12:10:22;100079.18;;;32.42
34023;BMP280;20673;48.980;8.138;2022-08-01T12:12:53;100072.22;;;33.09
34023;BMP280;20673;48.980;8.138;2022-08-01T12:15:22;100071.15;;;32.97
34023;BMP280;20673;48.980;8.138;2022-08-01T12:17:59;100056.06;;;32.22
34023;BMP280;20673;48.980;8.138;2022-08-01T12:20:23;100062.34;;;32.12
34023;BMP280;20673;48.980;8.138;2022-08-01T12:22:54;100065.37;;;32.31
34023;BMP280;20673;48.980;8.138;2022-08-01T12:25:21;100056.14;;;31.90
34023;BMP280;20673;48.980;8.138;2022-08-01T12:27:48;100064.76;;;31.97
34023;BMP280;20673;48.980;8.138;2022-08-01T12:30:19;100045.90;;;32.34
34023;BMP280;20673;48.980;8.138;2022-08-01T12:32:48;100047.76;;;32.42
34023;BMP280;20673;48.980;8.138;2022-08-01T12:35:18;100059.58;;;32.05
34023;BMP280;20673;48.980;8.138;2022-08-01T12:37:48;100063.71;;;32.51
34023;BMP280;20673;48.980;8.138;2022-08-01T12:40:21;100058.82;;;32.63
34023;BMP280;20673;48.980;8.138;2022-08-01T12:42:55;100051.64;;;32.21
34023;BMP280;20673;48.980;8.138;2022-08-01T12:45:27;100052.42;;;31.80
34023;BMP280;20673;48.980;8.138;2022-08-01T12:47:54;100044.97;;;32.49
34023;BMP280;20673;48.980;8.138;2022-08-01T12:50:23;100043.05;;;32.61
34023;BMP280;20673;48.980;8.138;2022-08-01T12:52:51;100042.05;;;32.39
34023;BMP280;20673;48.980;8.138;2022-08-01T12:55:23;100043.84;;;32.37
34023;BMP280;20673;48.980;8.138;2022-08-01T12:58:10;100047.19;;;32.32
34023;BMP280;20673;48.980;8.138;2022-08-01T13:00:39;100060.06;;;31.90
34023;BMP280;20673;48.980;8.138;2022-08-01T13:03:13;100055.12;;;32.70
34023;BMP280;20673;48.980;8.138;2022-08-01T13:05:50;100045.93;;;32.69
34023;BMP280;20673;48.980;8.138;2022-08-01T13:08:32;100044.34;;;32.53
34023;BMP280;20673;48.980;8.138;2022-08-01T13:11:07;100044.84;;;32.82
34023;BMP280;20673;48.980;8.138;2022-08-01T13:13:44;100040.08;;;32.51
34023;BMP280;20673;48.980;8.138;2022-08-01T13:16:13;100044.97;;;33.04
34023;BMP280;20673;48.980;8.138;2022-08-01T13:18:39;100034.70;;;33.02
34023;BMP280;20673;48.980;8.138;2022-08-01T13:21:20;100035.20;;;32.00
34023;BMP280;20673;48.980;8.138;2022-08-01T13:24:11;100034.67;;;31.54
34023;BMP280;20673;48.980;8.138;2022-08-01T13:26:59;100030.90;;;31.22
34023;BMP280;20673;48.980;8.138;2022-08-01T13:29:39;100035.34;;;31.72
34023;BMP280;20673;48.980;8.138;2022-08-01T13:32:20;100031.63;;;31.78
34023;BMP280;20673;48.980;8.138;2022-08-01T13:34:47;100036.29;;;31.73
34023;BMP280;20673;48.980;8.138;2022-08-01T13:37:14;100029.11;;;31.73
34023;BMP280;20673;48.980;8.138;2022-08-01T13:39:45;100031.57;;;31.73
34023;BMP280;20673;48.980;8.138;2022-08-01T13:42:13;100032.86;;;31.25
34023;BMP280;20673;48.980;8.138;2022-08-01T13:44:41;100028.79;;;31.59
34023;BMP280;20673;48.980;8.138;2022-08-01T13:47:08;100031.79;;;31.80
34023;BMP280;20673;48.980;8.138;2022-08-01T13:49:34;100026.84;;;32.67
34023;BMP280;20673;48.980;8.138;2022-08-01T13:52:02;100028.50;;;32.67
34023;BMP280;20673;48.980;8.138;2022-08-01T13:54:29;100020.00;;;32.53
34023;BMP280;20673;48.980;8.138;2022-08-01T13:56:55;100019.57;;;32.66
34023;BMP280;20673;48.980;8.138;2022-08-01T13:59:21;100022.73;;;32.81
34023;BMP280;20673;48.980;8.138;2022-08-01T14:01:47;100021.59;;;32.84
34023;BMP280;20673;48.980;8.138;2022-08-01T14:04:14;100021.51;;;33.20
34023;BMP280;20673;48.980;8.138;2022-08-01T14:06:40;100021.36;;;32.64
34023;BMP280;20673;48.980;8.138;2022-08-01T14:09:06;100016.23;;;33.07
34023;BMP280;20673;48.980;8.138;2022-08-01T14:11:33;100012.72;;;32.70
34023;BMP280;20673;48.980;8.138;2022-08-01T14:13:59;100017.58;;;32.82
34023;BMP280;20673;48.980;8.138;2022-08-01T14:16:25;100020.61;;;33.05
34023;BMP280;20673;48.980;8.138;2022-08-01T14:18:51;100017.60;;;32.54
34023;BMP280;20673;48.980;8.138;2022-08-01T14:21:18;100020.22;;;32.40
34023;BMP280;20673;48.980;8.138;2022-08-01T14:23:45;100017.72;;;32.21
34023;BMP280;20673;48.980;8.138;2022-08-01T14:26:11;100011.64;;;32.00
34023;BMP280;20673;48.980;8.138;2022-08-01T14:28:38;100023.98;;;31.77
34023;BMP280;20673;48.980;8.138;2022-08-01T14:31:05;100020.17;;;31.71
34023;BMP280;20673;48.980;8.138;2022-08-01T14:33:31;100017.23;;;31.81
34023;BMP280;20673;48.980;8.138;2022-08-01T14:35:58;100010.03;;;31.99
34023;BMP280;20673;48.980;8.138;2022-08-01T14:38:24;100010.38;;;31.54
34023;BMP280;20673;48.980;8.138;2022-08-01T14:40:51;100013.89;;;31.44